sensor_id;sensor_type;location;lat;lon;timestamp;pressure;altitude;pressure_sealevel;temperature;humidity
13011;BME280;6786;57.632;11.962;2023-08-12T00:01:31;100970.59;;;20.20;68.03
13011;BME280;6786;57.632;11.962;2023-08-12T00:04:00;100968.88;;;20.19;67.72
13011;BME280;6786;57.632;11.962;2023-08-12T00:06:28;100965.50;;;20.17;68.08
13011;BME280;6786;57.632;11.962;2023-08-12T00:08:56;100910.69;;;19.80;67.64
13011;BME280;6786;57.632;11.962;2023-08-12T00:11:26;100965.25;;;20.20;68.00
13011;BME280;6786;57.632;11.962;2023-08-12T00:13:54;100961.56;;;20.21;67.78
13011;BME280;6786;57.632;11.962;2023-08-12T00:16:22;100957.88;;;20.22;67.99
13011;BME280;6786;57.632;11.962;2023-08-12T00:18:50;100961.56;;;20.21;67.81
13011;BME280;6786;57.632;11.962;2023-08-12T00:21:18;100949.13;;;20.20;68.03
13011;BME280;6786;57.632;11.962;2023-08-12T00:23:47;100952.78;;;20.19;67.94
13011;BME280;6786;57.632;11.962;2023-08-12T00:26:17;100879.47;;;19.79;67.93
13011;BME280;6786;57.632;11.962;2023-08-12T00:28:49;100958.00;;;20.21;67.88
13011;BME280;6786;57.632;11.962;2023-08-12T00:31:18;100953.78;;;20.18;68.05
13011;BME280;6786;57.632;11.962;2023-08-12T00:33:46;100956.19;;;20.21;68.00
13011;BME280;6786;57.632;11.962;2023-08-12T00:36:14;100875.78;;;19.71;67.98
13011;BME280;6786;57.632;11.962;2023-08-12T00:38:43;100949.41;;;20.17;68.00
13011;BME280;6786;57.632;11.962;2023-08-12T00:41:11;100949.97;;;20.21;68.04
13011;BME280;6786;57.632;11.962;2023-08-12T00:43:39;100855.47;;;19.68;68.29
13011;BME280;6786;57.632;11.962;2023-08-12T00:46:09;100943.91;;;20.19;68.07
13011;BME280;6786;57.632;11.962;2023-08-12T00:48:37;100943.78;;;20.20;68.16
13011;BME280;6786;57.632;11.962;2023-08-12T00:51:06;100856.63;;;19.75;68.16
13011;BME280;6786;57.632;11.962;2023-08-12T00:53:34;100938.41;;;20.20;68.06
13011;BME280;6786;57.632;11.962;2023-08-12T00:56:03;100790.06;;;19.20;67.94
13011;BME280;6786;57.632;11.962;2023-08-12T00:58:32;100931.31;;;20.19;68.19
13011;BME280;6786;57.632;11.962;2023-08-12T01:01:00;100938.41;;;20.20;68.24
13011;BME280;6786;57.632;11.962;2023-08-12T01:03:30;100931.31;;;20.19;68.15
13011;BME280;6786;57.632;11.962;2023-08-12T01:05:59;100866.78;;;19.81;68.30
13011;BME280;6786;57.632;11.962;2023-08-12T01:08:30;100914.44;;;20.08;68.09
13011;BME280;6786;57.632;11.962;2023-08-12T01:11:03;100934.00;;;20.19;68.20
13011;BME280;6786;57.632;11.962;2023-08-12T01:13:41;100929.63;;;20.18;68.19
13011;BME280;6786;57.632;11.962;2023-08-12T01:16:16;100931.59;;;20.16;68.36
13011;BME280;6786;57.632;11.962;2023-08-12T01:18:48;100921.44;;;20.20;68.43
13011;BME280;6786;57.632;11.962;2023-08-12T01:21:21;100832.69;;;19.53;68.27
13011;BME280;6786;57.632;11.962;2023-08-12T01:23:50;100931.31;;;20.19;68.33
13011;BME280;6786;57.632;11.962;2023-08-12T01:26:20;100852.94;;;19.76;68.55
13011;BME280;6786;57.632;11.962;2023-08-12T01:28:48;100915.22;;;20.19;68.39
13011;BME280;6786;57.632;11.962;2023-08-12T01:31:21;100915.22;;;20.19;68.51
13011;BME280;6786;57.632;11.962;2023-08-12T01:33:55;100923.97;;;20.21;68.31
13011;BME280;6786;57.632;11.962;2023-08-12T01:36:27;100927.66;;;20.20;68.57
13011;BME280;6786;57.632;11.962;2023-08-12T01:38:59;100917.75;;;20.21;68.37
13011;BME280;6786;57.632;11.962;2023-08-12T01:41:30;100892.44;;;20.04;68.31
13011;BME280;6786;57.632;11.962;2023-08-12T01:43:59;100916.94;;;20.20;68.54
13011;BME280;6786;57.632;11.962;2023-08-12T01:46:28;100919.63;;;20.20;68.42
13011;BME280;6786;57.632;11.962;2023-08-12T01:48:56;100909.16;;;20.17;68.60
13011;BME280;6786;57.632;11.962;2023-08-12T01:51:24;100915.06;;;20.21;68.59
13011;BME280;6786;57.632;11.962;2023-08-12T01:53:52;100913.25;;;20.21;68.60
13011;BME280;6786;57.632;11.962;2023-08-12T01:56:22;100821.56;;;19.67;68.36
13011;BME280;6786;57.632;11.962;2023-08-12T01:58:49;100910.56;;;20.21;68.56
13011;BME280;6786;57.632;11.962;2023-08-12T02:01:17;100920.31;;;20.22;68.73
13011;BME280;6786;57.632;11.962;2023-08-12T02:03:46;100916.66;;;20.23;68.35
13011;BME280;6786;57.632;11.962;2023-08-12T02:06:14;100918.34;;;20.24;68.44
13011;BME280;6786;57.632;11.962;2023-08-12T02:08:42;100913.25;;;20.21;68.44
13011;BME280;6786;57.632;11.962;2023-08-12T02:11:11;100912.38;;;20.21;68.62
13011;BME280;6786;57.632;11.962;2023-08-12T02:13:40;100918.63;;;20.21;68.63
13011;BME280;6786;57.632;11.962;2023-08-12T02:16:08;100911.56;;;20.20;68.60
13011;BME280;6786;57.632;11.962;2023-08-12T02:18:37;100913.25;;;20.21;68.72
13011;BME280;6786;57.632;11.962;2023-08-12T02:21:05;100911.56;;;20.20;68.75
13011;BME280;6786;57.632;11.962;2023-08-12T02:23:33;100913.25;;;20.21;68.88
13011;BME280;6786;57.632;11.962;2023-08-12T02:26:02;100906.19;;;20.20;68.64
13011;BME280;6786;57.632;11.962;2023-08-12T02:28:30;100900.81;;;20.20;69.05
13011;BME280;6786;57.632;11.962;2023-08-12T02:31:00;100900.81;;;20.20;68.56
13011;BME280;6786;57.632;11.962;2023-08-12T02:33:28;100899.97;;;20.20;69.04
13011;BME280;6786;57.632;11.962;2023-08-12T02:35:56;100897.16;;;20.21;68.70
13011;BME280;6786;57.632;11.962;2023-08-12T02:38:24;100901.66;;;20.21;68.71
13011;BME280;6786;57.632;11.962;2023-08-12T02:40:52;100911.56;;;20.20;68.95
13011;BME280;6786;57.632;11.962;2023-08-12T02:43:22;100891.78;;;20.21;68.73
13011;BME280;6786;57.632;11.962;2023-08-12T02:45:50;100886.97;;;20.15;68.83
13011;BME280;6786;57.632;11.962;2023-08-12T02:48:19;100812.28;;;19.71;68.86
13011;BME280;6786;57.632;11.962;2023-08-12T02:50:47;100885.00;;;20.17;69.00
13011;BME280;6786;57.632;11.962;2023-08-12T02:53:16;100887.53;;;20.19;69.11
13011;BME280;6786;57.632;11.962;2023-08-12T02:55:44;100883.00;;;20.19;68.88
13011;BME280;6786;57.632;11.962;2023-08-12T02:58:12;100873.34;;;20.07;69.12
13011;BME280;6786;57.632;11.962;2023-08-12T03:00:41;100877.63;;;20.19;68.83
13011;BME280;6786;57.632;11.962;2023-08-12T03:03:10;100883.00;;;20.19;69.07
13011;BME280;6786;57.632;11.962;2023-08-12T03:05:40;100880.47;;;20.18;69.03
13011;BME280;6786;57.632;11.962;2023-08-12T03:08:10;100882.44;;;20.16;68.97
13011;BME280;6786;57.632;11.962;2023-08-12T03:10:38;100881.31;;;20.18;68.92
13011;BME280;6786;57.632;11.962;2023-08-12T03:13:06;100883.00;;;20.19;69.14
13011;BME280;6786;57.632;11.962;2023-08-12T03:15:34;100875.94;;;20.18;69.08
13011;BME280;6786;57.632;11.962;2023-08-12T03:18:06;100875.94;;;20.18;69.25
13011;BME280;6786;57.632;11.962;2023-08-12T03:20:34;100872.53;;;20.16;68.94
13011;BME280;6786;57.632;11.962;2023-08-12T03:23:04;100874.94;;;20.19;68.92
13011;BME280;6786;57.632;11.962;2023-08-12T03:25:32;100895.72;;;20.17;68.96
13011;BME280;6786;57.632;11.962;2023-08-12T03:28:00;100881.03;;;20.21;69.21
13011;BME280;6786;57.632;11.962;2023-08-12T03:30:28;100899.97;;;20.20;69.17
13011;BME280;6786;57.632;11.962;2023-08-12T03:32:56;100884.72;;;20.20;69.06
13011;BME280;6786;57.632;11.962;2023-08-12T03:35:24;100891.78;;;20.21;69.18
13011;BME280;6786;57.632;11.962;2023-08-12T03:37:53;100888.09;;;20.22;69.22
13011;BME280;6786;57.632;11.962;2023-08-12T03:40:22;100887.13;;;20.23;68.98
13011;BME280;6786;57.632;11.962;2023-08-12T03:42:51;100895.19;;;20.23;69.06
13011;BME280;6786;57.632;11.962;2023-08-12T03:45:19;100877.34;;;20.22;68.88
13011;BME280;6786;57.632;11.962;2023-08-12T03:47:47;100865.78;;;20.12;69.29
13011;BME280;6786;57.632;11.962;2023-08-12T03:50:15;100882.72;;;20.22;69.08
13011;BME280;6786;57.632;11.962;2023-08-12T03:52:43;100853.88;;;20.05;69.01
13011;BME280;6786;57.632;11.962;2023-08-12T03:55:12;100876.81;;;20.19;69.09
13011;BME280;6786;57.632;11.962;2023-08-12T03:57:41;100872.00;;;20.22;69.16
13011;BME280;6786;57.632;11.962;2023-08-12T04:00:10;100863.25;;;20.20;69.22
13011;BME280;6786;57.632;11.962;2023-08-12T04:02:38;100864.22;;;20.19;69.36
13011;BME280;6786;57.632;11.962;2023-08-12T04:05:07;100864.63;;;20.15;69.50
13011;BME280;6786;57.632;11.962;2023-08-12T04:07:35;100859.41;;;20.13;69.54
13011;BME280;6786;57.632;11.962;2023-08-12T04:10:04;100862.81;;;20.15;69.33
13011;BME280;6786;57.632;11.962;2023-08-12T04:12:33;100864.22;;;20.19;69.44
13011;BME280;6786;57.632;11.962;2023-08-12T04:15:02;100864.06;;;20.21;69.22
13011;BME280;6786;57.632;11.962;2023-08-12T04:17:32;100806.66;;;19.74;69.43
13011;BME280;6786;57.632;11.962;2023-08-12T04:20:00;100837.19;;;19.92;69.53
13011;BME280;6786;57.632;11.962;2023-08-12T04:22:32;100865.94;;;20.20;69.28
13011;BME280;6786;57.632;11.962;2023-08-12T04:25:00;100865.94;;;20.20;69.26
13011;BME280;6786;57.632;11.962;2023-08-12T04:27:29;100863.25;;;20.20;69.38
13011;BME280;6786;57.632;11.962;2023-08-12T04:29:57;100867.75;;;20.20;69.51
13011;BME280;6786;57.632;11.962;2023-08-12T04:32:26;100860.44;;;20.22;69.36
13011;BME280;6786;57.632;11.962;2023-08-12T04:34:54;100849.91;;;20.09;69.63
13011;BME280;6786;57.632;11.962;2023-08-12T04:37:23;100871.72;;;20.25;69.49
13011;BME280;6786;57.632;11.962;2023-08-12T04:39:53;100877.66;;;20.29;69.51
13011;BME280;6786;57.632;11.962;2023-08-12T04:42:22;100803.84;;;19.85;69.48
13011;BME280;6786;57.632;11.962;2023-08-12T04:44:51;100858.47;;;20.33;69.65
13011;BME280;6786;57.632;11.962;2023-08-12T04:47:20;100857.47;;;20.34;69.88
13011;BME280;6786;57.632;11.962;2023-08-12T04:49:49;100859.88;;;20.37;69.75
13011;BME280;6786;57.632;11.962;2023-08-12T04:52:18;100829.78;;;20.24;70.08
13011;BME280;6786;57.632;11.962;2023-08-12T04:54:47;100798.22;;;20.07;70.39
13011;BME280;6786;57.632;11.962;2023-08-12T04:57:16;100859.59;;;20.40;70.37
13011;BME280;6786;57.632;11.962;2023-08-12T04:59:44;100859.59;;;20.40;70.63
13011;BME280;6786;57.632;11.962;2023-08-12T05:02:12;100871.31;;;20.39;70.58
13011;BME280;6786;57.632;11.962;2023-08-12T05:04:41;100871.19;;;20.41;71.06
13011;BME280;6786;57.632;11.962;2023-08-12T05:07:11;100855.94;;;20.41;70.65
13011;BME280;6786;57.632;11.962;2023-08-12T05:09:39;100845.19;;;20.32;71.01
13011;BME280;6786;57.632;11.962;2023-08-12T05:12:08;100865.38;;;20.45;71.21
13011;BME280;6786;57.632;11.962;2023-08-12T05:14:37;100870.03;;;20.43;70.97
13011;BME280;6786;57.632;11.962;2023-08-12T05:17:05;100863.25;;;20.39;70.86
13011;BME280;6786;57.632;11.962;2023-08-12T05:19:34;100875.69;;;20.40;70.87
13011;BME280;6786;57.632;11.962;2023-08-12T05:22:02;100855.63;;;20.25;70.88
13011;BME280;6786;57.632;11.962;2023-08-12T05:24:32;100870.59;;;20.37;71.03
13011;BME280;6786;57.632;11.962;2023-08-12T05:27:00;100868.06;;;20.36;71.33
13011;BME280;6786;57.632;11.962;2023-08-12T05:29:29;100863.53;;;20.36;71.10
13011;BME280;6786;57.632;11.962;2023-08-12T05:31:58;100872.59;;;20.35;71.19
13011;BME280;6786;57.632;11.962;2023-08-12T05:34:26;100877.97;;;20.35;70.89
13011;BME280;6786;57.632;11.962;2023-08-12T05:36:54;100881.63;;;20.34;70.95
13011;BME280;6786;57.632;11.962;2023-08-12T05:39:23;100890.94;;;20.30;70.89
13011;BME280;6786;57.632;11.962;2023-08-12T05:41:53;100885.31;;;20.33;70.89
13011;BME280;6786;57.632;11.962;2023-08-12T05:44:21;100890.66;;;20.33;70.91
13011;BME280;6786;57.632;11.962;2023-08-12T05:46:49;100875.56;;;20.32;70.93
13011;BME280;6786;57.632;11.962;2023-08-12T05:49:18;100873.84;;;20.31;70.92
13011;BME280;6786;57.632;11.962;2023-08-12T05:51:47;100881.91;;;20.31;70.92
13011;BME280;6786;57.632;11.962;2023-08-12T05:54:16;100868.47;;;20.31;70.76
13011;BME280;6786;57.632;11.962;2023-08-12T05:56:44;100842.34;;;20.14;71.07
13011;BME280;6786;57.632;11.962;2023-08-12T05:59:14;100881.06;;;20.31;70.86
13011;BME280;6786;57.632;11.962;2023-08-12T06:01:42;100848.41;;;20.16;70.68
13011;BME280;6786;57.632;11.962;2023-08-12T06:04:10;100868.47;;;20.31;70.96
13011;BME280;6786;57.632;11.962;2023-08-12T06:06:39;100810.06;;;19.86;71.01
13011;BME280;6786;57.632;11.962;2023-08-12T06:09:07;100868.47;;;20.31;70.93
13011;BME280;6786;57.632;11.962;2023-08-12T06:11:35;100871.88;;;20.33;70.82
13011;BME280;6786;57.632;11.962;2023-08-12T06:14:04;100811.06;;;19.94;70.58
13011;BME280;6786;57.632;11.962;2023-08-12T06:16:47;100869.19;;;20.33;70.74
13011;BME280;6786;57.632;11.962;2023-08-12T06:19:15;100791.41;;;19.84;70.65
13011;BME280;6786;57.632;11.962;2023-08-12T06:21:44;100875.44;;;20.34;70.57
13011;BME280;6786;57.632;11.962;2023-08-12T06:24:13;100879.94;;;20.33;70.52
13011;BME280;6786;57.632;11.962;2023-08-12T06:26:42;100867.50;;;20.32;70.48
13011;BME280;6786;57.632;11.962;2023-08-12T06:29:10;100791.97;;;19.78;70.57
13011;BME280;6786;57.632;11.962;2023-08-12T06:31:40;100814.00;;;19.82;70.66
13011;BME280;6786;57.632;11.962;2023-08-12T06:34:08;100868.06;;;20.26;70.78
13011;BME280;6786;57.632;11.962;2023-08-12T06:36:36;100879.94;;;20.33;70.72
13011;BME280;6786;57.632;11.962;2023-08-12T06:39:05;100861.69;;;20.27;70.44
13011;BME280;6786;57.632;11.962;2023-08-12T06:41:33;100799.63;;;19.92;70.65
13011;BME280;6786;57.632;11.962;2023-08-12T06:44:02;100757.78;;;19.61;70.30
13011;BME280;6786;57.632;11.962;2023-08-12T06:46:31;100789.47;;;19.86;70.39
13011;BME280;6786;57.632;11.962;2023-08-12T06:49:00;100886.16;;;20.34;70.64
13011;BME280;6786;57.632;11.962;2023-08-12T06:51:29;100879.94;;;20.33;70.69
13011;BME280;6786;57.632;11.962;2023-08-12T06:53:57;100859.84;;;20.18;70.64
13011;BME280;6786;57.632;11.962;2023-08-12T06:56:25;100880.22;;;20.30;70.81
13011;BME280;6786;57.632;11.962;2023-08-12T06:58:54;100879.94;;;20.33;70.61
13011;BME280;6786;57.632;11.962;2023-08-12T07:01:22;100891.53;;;20.34;70.70
13011;BME280;6786;57.632;11.962;2023-08-12T07:03:51;100886.97;;;20.34;70.59
13011;BME280;6786;57.632;11.962;2023-08-12T07:06:22;100889.53;;;20.36;70.51
13011;BME280;6786;57.632;11.962;2023-08-12T07:08:50;100883.34;;;20.35;70.56
13011;BME280;6786;57.632;11.962;2023-08-12T07:11:18;100859.56;;;20.21;70.64
13011;BME280;6786;57.632;11.962;2023-08-12T07:13:46;100891.38;;;20.35;70.60
13011;BME280;6786;57.632;11.962;2023-08-12T07:16:17;100894.06;;;20.35;70.33
13011;BME280;6786;57.632;11.962;2023-08-12T07:18:50;100822.78;;;19.93;70.36
13011;BME280;6786;57.632;11.962;2023-08-12T07:21:18;100856.97;;;20.01;70.57
13011;BME280;6786;57.632;11.962;2023-08-12T07:23:48;100906.50;;;20.36;70.58
13011;BME280;6786;57.632;11.962;2023-08-12T07:26:30;100902.81;;;20.37;70.60
13011;BME280;6786;57.632;11.962;2023-08-12T07:29:01;100816.84;;;19.80;70.33
13011;BME280;6786;57.632;11.962;2023-08-12T07:31:30;100893.78;;;20.38;70.62
13011;BME280;6786;57.632;11.962;2023-08-12T07:33:58;100888.44;;;20.38;70.34
13011;BME280;6786;57.632;11.962;2023-08-12T07:36:26;100866.34;;;20.25;70.75
13011;BME280;6786;57.632;11.962;2023-08-12T07:38:56;100777.84;;;19.76;70.57
13011;BME280;6786;57.632;11.962;2023-08-12T07:41:25;100792.56;;;19.91;70.70
13011;BME280;6786;57.632;11.962;2023-08-12T07:43:58;100867.22;;;20.35;70.72
13011;BME280;6786;57.632;11.962;2023-08-12T07:46:27;100862.97;;;20.23;70.48
13011;BME280;6786;57.632;11.962;2023-08-12T07:48:56;100905.66;;;20.45;70.76
13011;BME280;6786;57.632;11.962;2023-08-12T07:51:24;100901.28;;;20.44;70.97
13011;BME280;6786;57.632;11.962;2023-08-12T07:53:52;100883.91;;;20.48;71.08
13011;BME280;6786;57.632;11.962;2023-08-12T07:56:23;100881.94;;;20.50;71.10
13011;BME280;6786;57.632;11.962;2023-08-12T07:58:52;100888.13;;;20.51;71.12
13011;BME280;6786;57.632;11.962;2023-08-12T08:01:21;100868.06;;;20.36;71.11
13011;BME280;6786;57.632;11.962;2023-08-12T08:03:50;100889.28;;;20.48;71.01
13011;BME280;6786;57.632;11.962;2023-08-12T08:06:18;100895.66;;;20.47;70.91
13011;BME280;6786;57.632;11.962;2023-08-12T08:08:46;100897.16;;;20.40;71.10
13011;BME280;6786;57.632;11.962;2023-08-12T08:11:15;100844.53;;;20.09;70.92
13011;BME280;6786;57.632;11.962;2023-08-12T08:13:44;100786.44;;;19.70;70.77
13011;BME280;6786;57.632;11.962;2023-08-12T08:16:13;100922.78;;;20.44;71.15
13011;BME280;6786;57.632;11.962;2023-08-12T08:18:41;100913.00;;;20.43;71.28
13011;BME280;6786;57.632;11.962;2023-08-12T08:21:09;100920.09;;;20.44;70.94
13011;BME280;6786;57.632;11.962;2023-08-12T08:23:40;100905.63;;;20.36;71.19
13011;BME280;6786;57.632;11.962;2023-08-12T08:26:08;100929.09;;;20.43;70.95
13011;BME280;6786;57.632;11.962;2023-08-12T08:28:37;100934.47;;;20.43;71.14
13011;BME280;6786;57.632;11.962;2023-08-12T08:31:07;100938.16;;;20.42;71.17
13011;BME280;6786;57.632;11.962;2023-08-12T08:33:36;100932.78;;;20.42;70.98
13011;BME280;6786;57.632;11.962;2023-08-12T08:36:04;100897.72;;;20.25;70.97
13011;BME280;6786;57.632;11.962;2023-08-12T08:38:33;100771.56;;;19.47;71.25
13011;BME280;6786;57.632;11.962;2023-08-12T08:41:04;100888.53;;;20.27;71.13
13011;BME280;6786;57.632;11.962;2023-08-12T08:43:35;100897.16;;;20.40;71.11
13011;BME280;6786;57.632;11.962;2023-08-12T08:46:05;100903.41;;;20.41;70.96
13011;BME280;6786;57.632;11.962;2023-08-12T08:48:35;100909.63;;;20.41;71.28
13011;BME280;6786;57.632;11.962;2023-08-12T08:51:05;100904.81;;;20.35;71.30
13011;BME280;6786;57.632;11.962;2023-08-12T08:53:35;100845.66;;;19.97;71.18
13011;BME280;6786;57.632;11.962;2023-08-12T08:56:06;100913.41;;;20.39;71.21
13011;BME280;6786;57.632;11.962;2023-08-12T08:58:41;100908.47;;;20.34;71.41
13011;BME280;6786;57.632;11.962;2023-08-12T09:01:10;100910.19;;;20.35;71.58
13011;BME280;6786;57.632;11.962;2023-08-12T09:03:40;100901.41;;;20.33;71.48
13011;BME280;6786;57.632;11.962;2023-08-12T09:06:09;100904.66;;;20.37;71.44
13011;BME280;6786;57.632;11.962;2023-08-12T09:08:40;100837.19;;;19.92;71.33
13011;BME280;6786;57.632;11.962;2023-08-12T09:11:13;100858.66;;;19.92;71.38
13011;BME280;6786;57.632;11.962;2023-08-12T09:13:42;100859.63;;;19.91;71.16
13011;BME280;6786;57.632;11.962;2023-08-12T09:16:10;100935.88;;;20.38;71.56
13011;BME280;6786;57.632;11.962;2023-08-12T09:18:41;100928.25;;;20.33;71.62
13011;BME280;6786;57.632;11.962;2023-08-12T09:21:11;100864.00;;;19.92;71.44
13011;BME280;6786;57.632;11.962;2023-08-12T09:23:40;100938.72;;;20.36;71.38
13011;BME280;6786;57.632;11.962;2023-08-12T09:26:13;100930.66;;;20.36;71.60
13011;BME280;6786;57.632;11.962;2023-08-12T09:28:42;100923.75;;;20.34;71.50
13011;BME280;6786;57.632;11.962;2023-08-12T09:31:22;100922.31;;;20.39;71.81
13011;BME280;6786;57.632;11.962;2023-08-12T09:33:52;100916.97;;;20.39;71.47
13011;BME280;6786;57.632;11.962;2023-08-12T09:36:21;100914.28;;;20.39;71.24
13011;BME280;6786;57.632;11.962;2023-08-12T09:38:50;100911.59;;;20.39;71.52
13011;BME280;6786;57.632;11.962;2023-08-12T09:41:19;100913.28;;;20.40;71.27
13011;BME280;6786;57.632;11.962;2023-08-12T09:43:47;100857.38;;;19.96;71.64
13011;BME280;6786;57.632;11.962;2023-08-12T09:46:15;100805.47;;;19.67;71.33
13011;BME280;6786;57.632;11.962;2023-08-12T09:48:45;100786.84;;;19.56;71.33
13011;BME280;6786;57.632;11.962;2023-08-12T09:51:15;100916.97;;;20.39;71.36
13011;BME280;6786;57.632;11.962;2023-08-12T09:53:44;100916.97;;;20.39;71.46
13011;BME280;6786;57.632;11.962;2023-08-12T09:56:13;100909.91;;;20.38;71.59
13011;BME280;6786;57.632;11.962;2023-08-12T09:58:48;100838.88;;;19.93;71.60
13011;BME280;6786;57.632;11.962;2023-08-12T10:01:19;100905.09;;;20.32;71.40
13011;BME280;6786;57.632;11.962;2023-08-12T10:03:50;100911.88;;;20.36;71.75
13011;BME280;6786;57.632;11.962;2023-08-12T10:06:20;100888.09;;;20.22;71.47
13011;BME280;6786;57.632;11.962;2023-08-12T10:08:49;100915.53;;;20.35;71.74
13011;BME280;6786;57.632;11.962;2023-08-12T10:11:18;100924.16;;;20.29;71.93
13011;BME280;6786;57.632;11.962;2023-08-12T10:13:47;100910.19;;;20.35;71.84
13011;BME280;6786;57.632;11.962;2023-08-12T10:16:16;100904.81;;;20.35;71.91
13011;BME280;6786;57.632;11.962;2023-08-12T10:18:46;100908.47;;;20.34;71.90
13011;BME280;6786;57.632;11.962;2023-08-12T10:21:15;100911.16;;;20.34;72.01
13011;BME280;6786;57.632;11.962;2023-08-12T10:23:46;100919.19;;;20.34;71.88
13011;BME280;6786;57.632;11.962;2023-08-12T10:26:15;100904.81;;;20.35;71.92
13011;BME280;6786;57.632;11.962;2023-08-12T10:28:45;100895.19;;;20.33;71.62
13011;BME280;6786;57.632;11.962;2023-08-12T10:31:15;100903.09;;;20.34;71.83
13011;BME280;6786;57.632;11.962;2023-08-12T10:33:44;100905.78;;;20.34;71.98
13011;BME280;6786;57.632;11.962;2023-08-12T10:36:16;100903.09;;;20.34;72.03
13011;BME280;6786;57.632;11.962;2023-08-12T10:38:47;100900.41;;;20.34;72.14
13011;BME280;6786;57.632;11.962;2023-08-12T10:41:17;100898.72;;;20.33;71.94
13011;BME280;6786;57.632;11.962;2023-08-12T10:43:53;100903.09;;;20.34;72.15
13011;BME280;6786;57.632;11.962;2023-08-12T10:46:23;100908.47;;;20.34;71.89
13011;BME280;6786;57.632;11.962;2023-08-12T10:49:13;100896.63;;;20.37;72.64
13011;BME280;6786;57.632;11.962;2023-08-12T10:51:44;100779.22;;;19.61;72.03
13011;BME280;6786;57.632;11.962;2023-08-12T10:54:22;100903.09;;;20.34;72.32
13011;BME280;6786;57.632;11.962;2023-08-12T10:57:07;100898.59;;;20.35;72.28
13011;BME280;6786;57.632;11.962;2023-08-12T10:59:48;100888.44;;;20.38;72.10
13011;BME280;6786;57.632;11.962;2023-08-12T11:02:17;100890.13;;;20.39;72.03
13011;BME280;6786;57.632;11.962;2023-08-12T11:04:49;100879.38;;;20.39;72.06
13011;BME280;6786;57.632;11.962;2023-08-12T11:07:19;100872.16;;;20.30;71.93
13011;BME280;6786;57.632;11.962;2023-08-12T11:09:52;100879.38;;;20.39;72.07
13011;BME280;6786;57.632;11.962;2023-08-12T11:12:30;100877.69;;;20.38;72.40
13011;BME280;6786;57.632;11.962;2023-08-12T11:15:00;100876.97;;;20.36;71.98
13011;BME280;6786;57.632;11.962;2023-08-12T11:17:35;100877.69;;;20.38;72.13
13011;BME280;6786;57.632;11.962;2023-08-12T11:20:08;100883.34;;;20.35;72.21
13011;BME280;6786;57.632;11.962;2023-08-12T11:22:39;100883.34;;;20.35;72.07
13011;BME280;6786;57.632;11.962;2023-08-12T11:25:10;100815.69;;;19.83;72.37
13011;BME280;6786;57.632;11.962;2023-08-12T11:27:40;100878.25;;;20.32;72.43
13011;BME280;6786;57.632;11.962;2023-08-12T11:30:10;100887.97;;;20.33;72.49
13011;BME280;6786;57.632;11.962;2023-08-12T11:32:42;100889.66;;;20.34;72.24
13011;BME280;6786;57.632;11.962;2023-08-12T11:35:12;100868.34;;;20.23;72.52
13011;BME280;6786;57.632;11.962;2023-08-12T11:37:42;100892.34;;;20.34;72.31
13011;BME280;6786;57.632;11.962;2023-08-12T11:40:13;100879.94;;;20.33;72.29
13011;BME280;6786;57.632;11.962;2023-08-12T11:42:43;100867.22;;;20.35;72.43
13011;BME280;6786;57.632;11.962;2023-08-12T11:45:14;100875.97;;;20.37;72.24
13011;BME280;6786;57.632;11.962;2023-08-12T11:47:42;100761.91;;;19.65;72.34
13011;BME280;6786;57.632;11.962;2023-08-12T11:50:14;100852.25;;;20.23;72.40
13011;BME280;6786;57.632;11.962;2023-08-12T11:52:42;100872.59;;;20.35;72.22
13011;BME280;6786;57.632;11.962;2023-08-12T11:55:12;100878.25;;;20.32;72.49
13011;BME280;6786;57.632;11.962;2023-08-12T11:57:41;100793.66;;;19.79;72.69
13011;BME280;6786;57.632;11.962;2023-08-12T12:00:11;100876.53;;;20.31;72.47
13011;BME280;6786;57.632;11.962;2023-08-12T12:02:46;100882.75;;;20.32;73.03
13011;BME280;6786;57.632;11.962;2023-08-12T12:05:16;100881.06;;;20.31;72.63
13011;BME280;6786;57.632;11.962;2023-08-12T12:07:49;100869.47;;;20.30;72.91
13011;BME280;6786;57.632;11.962;2023-08-12T12:10:26;100871.16;;;20.31;72.83
13011;BME280;6786;57.632;11.962;2023-08-12T12:13:01;100816.41;;;19.94;72.66
13011;BME280;6786;57.632;11.962;2023-08-12T12:15:29;100867.50;;;20.32;72.85
13011;BME280;6786;57.632;11.962;2023-08-12T12:17:58;100862.97;;;20.33;72.50
13011;BME280;6786;57.632;11.962;2023-08-12T12:20:26;100860.41;;;20.31;72.91
13011;BME280;6786;57.632;11.962;2023-08-12T12:22:56;100856.78;;;20.32;72.81
13011;BME280;6786;57.632;11.962;2023-08-12T12:25:26;100855.34;;;20.28;72.65
13011;BME280;6786;57.632;11.962;2023-08-12T12:27:55;100857.59;;;20.33;72.67
13011;BME280;6786;57.632;11.962;2023-08-12T12:30:24;100863.81;;;20.33;72.94
13011;BME280;6786;57.632;11.962;2023-08-12T12:32:52;100854.78;;;20.34;72.96
13011;BME280;6786;57.632;11.962;2023-08-12T12:35:21;100846.72;;;20.34;72.63
13011;BME280;6786;57.632;11.962;2023-08-12T12:37:49;100724.19;;;19.57;72.78
13011;BME280;6786;57.632;11.962;2023-08-12T12:40:17;100857.47;;;20.34;72.71
13011;BME280;6786;57.632;11.962;2023-08-12T12:42:47;100844.59;;;20.28;72.85
13011;BME280;6786;57.632;11.962;2023-08-12T12:45:15;100853.38;;;20.30;72.69
13011;BME280;6786;57.632;11.962;2023-08-12T12:47:43;100861.88;;;20.35;72.79
13011;BME280;6786;57.632;11.962;2023-08-12T12:50:12;100860.00;;;20.36;72.88
13011;BME280;6786;57.632;11.962;2023-08-12T12:52:40;100856.50;;;20.35;72.70
13011;BME280;6786;57.632;11.962;2023-08-12T12:55:10;100854.63;;;20.36;72.74
13011;BME280;6786;57.632;11.962;2023-08-12T12:57:38;100759.38;;;19.83;72.75
13011;BME280;6786;57.632;11.962;2023-08-12T13:00:09;100824.25;;;20.16;73.21
13011;BME280;6786;57.632;11.962;2023-08-12T13:02:38;100786.06;;;19.84;73.05